Timeline UpdatesTrip UpdatesNews PostsPvt PostsTravel TipsAdmin PostsConv PostsFollowed PostsChat RequestsBlog PostsPNR Posts

Disclaimer
Search
 
 
Wed Jul 30, 2014 04:24:42 ISTHomeTrainsΣChainsAtlasPNRForumGalleryNewsFAQTripsMembersLoginFeedback
No Recent News for this Train
Other Trains in the News **new
Latest...
Will run till further notification #1151202
Mon Jun 30, 2014 (07:19PM)
⇐ Return Journey: Train# 13039

13040/Delhi-Howrah Janta Express (UnReserved)

Jun 30 (7:18PM)
Change Departure Station:
Change Arrival Station:
Post a Train Travel TipPost a Train Travel Tip **new
Post a Comment/Question/Picture/VideoPost a Comment/Question/Picture/Video
Inaugural Run
Tue Oct 01, 1946
Pantry/Catering
✕ NO Pantry Car
✕ NO Catering
RSA - Rake Sharing
Rake/Coach Composition
All coaches having Unreserved.
Loco
HWH WAP-4
News    PNR    Forum    Time-Table    Availability    Fare Chart    Map    Arr/Dep History    Trips    Gallery    ΣChains    X/O    Timeline    
Travel Time: 38h 30m    118 halts    Distance: 1542 km    Avg Speed: 40 km/hr
Type: Mail/Express
Zone: ER/Eastern
Departs @ 15:35 (Avg 4h 42m late)
Platform# 10
SMTWTFS
Old Delhi Junction/DLI 
Arrives @ 06:05 +2 nights (Avg 8h 20m late)
Platform# 7
SMTWTFS
Kolkata Howrah Junction/HWH 

118 halts. 293 intermediate Stations between Old Delhi Junction and Kolkata Howrah Junction

Show ALL intermediate Stations  Show Old Time-Table

#CodeStation NameX/OArrivesAvgDepartsAvgHaltPFDay#KmSpeedElevZoneAddress
1DLI»Old Delhi Junction (16)»  -15:35+4:421010.029219mNRNear Chandni Chowk Metro Station, Delhi NCT
2DSAShahdara Junction (4)  15:48+5:4715:50+5:512m216.352212mNRCircular Rd, Delhi NCT
3SBBSahibabad Junction (5)  15:58+7:0216:00+7:022m1113.245209mNRGhaziabad, Uttar Pradesh
4GZBGhaziabad Junction (6)X  16:09+5:0916:11+5:212m2119.946217mNRGhaziabad, Uttar Pradesh
5MIUMaripat (2)X  16:24+6:4316:25+6:511m--129.958213mNCRNational Highway 91, Uttar Pradesh
6DERDadri (3)  16:32+6:5316:33+6:551m2136.769210mNCR203207, Uttar Pradesh
7AJRAjaibpur (2)XO  16:41+7:0116:42+7:031m--145.862207mNCRGreater Noida, Uttar Pradesh
8DKDEDankaur (3)OO  16:50+7:0316:51+7:121m--154.190209mNCRShyam Nagar Mandi, Uttar Pradesh
9WAIRWair (2)  16:57+6:5916:58+7:051m1163.149203mNCRBulandshahr District, Uttar Pradesh
10CHLChola (3)XO  17:04+7:0717:05+7:081m--168.089204mNCRTahsil Bulandshahar, Uttar Pradesh
11SKQSikandarpur (2)  17:11+7:1217:12+7:071m--176.949199mNCRMDR 70W, Uttar Pradesh
12KRJKhurja Junction (4)  17:19+7:0817:20+7:101m2182.648199mNCRBulandshahr, Uttar Pradesh
13DARDanwar (2)X  17:34+7:1117:35+7:161m--193.768198mNCRDanwar, Uttar Pradesh
14SOMSomna (2)O  17:44+7:1817:45+7:231m--1104.068195mNCRNational Highway 91, Uttar Pradesh
15KLAKulwa (2)XO  17:54+7:1917:55+7:191m--1114.151190mNCRAligarh, Uttar Pradesh
16ALJNAligarh Junction (4)O  18:09+5:5718:10+6:001m21126.149192mNCRAligarh, Uttar Pradesh
17MXKMandrak (2)XO  18:27+7:3418:28+7:371m--1139.988190mNCRNational Highway 93, Uttar Pradesh
18SNSSasni (3)O  18:33+7:3018:34+7:451m--1147.349185mNCRSasni, Uttar Pradesh
19HRSHathras Junction (3)XOO  18:45+7:4418:50+7:425m11156.271183mNCRMahamaya Nagar(05722-242803), Uttar Pradesh
20JLSJalesar Road (1)  19:07+7:4719:08+7:491m11176.366172mNCRMDR 106W, Uttar Pradesh
21BRNBarhan Junction  19:20+7:3219:21+7:371m--1189.57173mNCRJN Point-Tundle/Aligarh/Etah, Uttar Pradesh
22TDLTundla Junction (5)O  21:33+6:5721:43+6:5710m31204.266167mNCRDistt.Firozabad, Uttar Pradesh
23FZDFirozabad (4)XO  21:58+7:0921:59+7:071m21220.721164mNCRFirozabad, Uttar Pradesh
24SKBShikohabad Junction (4)X  22:55+6:5723:00+7:015m21240.658166mNCRDistrict Firozabad, Uttar Pradesh
25JGRJaswantnagar (2)  23:41+6:5523:42+6:581m--1280.025154mNCRJaswantnagar, Uttar Pradesh
26ETWEtawah (5)XO  00:20+6:2300:25+6:245m32296.085154mNCRDistt. Etawah, Uttar Pradesh
27BNTBharthana (3)XO  00:39+6:4100:40+6:431m--2315.969147mNCRBharthana, Uttar Pradesh
28ULDAchalda (3)X  00:57+6:3600:58+6:381m--2335.463147mNCRDist. Auraiya(05688-1072), Uttar Pradesh
29PHDPhaphund (4)XO  01:14+6:4601:15+6:471m--2352.229146mNCRdist. Auraiya, Uttar Pradesh
30JJKJhinjhak (3)X  01:56+6:2601:57+6:271m22372.052140mNCRAuraiya, Uttar Pradesh
31RURARura (4)X  02:19+6:1802:20+6:221m--2391.033137mNCRJhinjhak, Uttar Pradesh
32CNBKanpur Central (10)X  03:40+5:3303:50+5:3510m42435.460128mNCRKANPUR-208 001, Uttar Pradesh
33BKOBindki RoadXO  04:36+6:5104:38+6:512m--2481.770124mNCRFatehpur, Uttar Pradesh
34FTPFatehpur (3)XO  05:05+6:2805:10+6:255m--2513.083120mNCRFatehpur, Uttar Pradesh
35KGAKhaga (3)X  05:35+7:0405:40+7:045m--2547.774114mNCRFatehpur, Uttar Pradesh
36SROSirathu (2)XO  06:00+7:0506:05+7:055m12572.574109mNCRSirathu, Uttar Pradesh
37SJTShujaatpurO  06:13+7:0506:18+7:015m--2582.377107mNCRNational Highway 2, Uttar Pradesh
38BREBharwari  06:26+6:5906:28+6:562m--2592.657108mNCRBharwari, Uttar Pradesh
39SYWNSaiyid SarawanXO  06:44+6:5206:45+6:561m--2607.916106mNCR212203 ?, Uttar Pradesh
40MREManauriO  07:02+6:4407:03+6:451m--2612.558105mNCRSabderganj-Fatehpur Rd, Uttar Pradesh
41SFGSubedarGanj (3)XO  07:17+6:4907:18+6:551m--2625.97100mNCRAllahabad, Uttar Pradesh
42ALDAllahabad Junction (10)XO  07:50+6:1708:00+6:2610m62629.747100mNCRAllahabad 211003, Uttar Pradesh
43NYNNaini Junction (4)  08:09+7:1508:11+7:192m12636.84998mNCRAllahabad, Uttar Pradesh
44KCNKarchanaXO  08:24+7:0908:25+7:011m--2647.47294mNCRKarchana, Uttar Pradesh
45MJAMeja Road (4)X  08:42+7:1608:43+7:191m--2667.83294mNCRDistrict Allahabad, Uttar Pradesh
46UNDUnchdihO  08:58+7:1708:59+7:081m--2676.04494mNCRUnchdih, Uttar Pradesh
47MNFManda Road  09:10+7:0609:15+7:075m--2684.05693mNCRNH 76, Uttar Pradesh
48JIAJigna (1)X  09:24+7:2009:25+7:151m12692.45994mNCRNational Highway 76, Uttar Pradesh
49GAEGaipura (4)XO  09:32+7:1909:33+7:141m--2699.26286mNCRGaipura, Uttar Pradesh
50BDLVindhyachal (3)XO  09:45+7:2409:46+7:081m--2711.51988mNCRMirzapur, Uttar Pradesh
51MZPMirzapur (3)X  10:09+6:4010:10+6:361m--2718.94788mNCRMirzapur, Uttar Pradesh
52CARChunar Junction (5)XO  10:50+7:3410:55+7:255m22750.25785mNCRChunar Junction, Uttar Pradesh
53KYTKailahat (4)O  11:05+7:3011:06+7:341m--2759.63283mNCRKailahat, Uttar Pradesh
54ARWAhraura Road (4)O  11:22+7:3811:23+7:391m--2768.12285mNCRDist. Mirzapur - 231305, Uttar Pradesh
55MGSMughal Sarai Junction (8)  12:00+6:2712:15+6:2515m22781.95083mECRMughalsarai 232101, Uttar Pradesh
56SLDSakaldiha (2)O  12:37+7:3512:38+7:361m--2800.18281mECRState Highway 69, Uttar Pradesh
57ZNAZamania (2)X  12:57+7:4112:58+7:421m--2826.15877mECRGhazipur, Uttar Pradesh
58DLNDildarnagar Junction (2)  13:12+7:2513:14+7:252m--2839.67972mECRDildarnagar, Uttar Pradesh
59BWHBhadaura (2)O  13:20+7:4613:21+7:471m--2847.55569mECRGhazipur, Uttar Pradesh
60GMRGahmar (2)  13:30+7:2413:31+7:261m--2855.66968mECRDistt: Ghazipur, Uttar Pradesh
61CSAChausa (2)X  13:39+7:4213:40+7:451m--2864.96668mECRState Highway 14, Bihar
62BXRBuxar (3)XO  13:50+6:3313:55+6:335m--2875.88267mECRBuxar, Bihar
63DUREDumraon (3)XO  14:07+7:4114:08+7:411m--2892.15170mECRDumraon, Bihar
64TWGTwining Ganj  14:17+7:3114:18+7:341m--2899.77270mECRArrah Buxar Rd, Bihar
65RPRRaghunathpur (4)XO  14:25+7:3114:26+7:321m--2908.15969mECRRaghunathpur, Bihar
66BYNBanahi (2)X  14:35+8:0114:36+8:011m--2917.04467mECRBanahi, Bihar
67BEABihiya (3)O  14:44+7:1914:45+7:201m--2922.96367mECRBehea, Bihar
68KRSKarisath (2)XO  14:56+7:5214:57+7:541m--2934.42065mECRKarisath, Bihar
69ARAAra Junction (3)O  15:27+7:3415:29+7:352m--2944.39963mECRarrah( 06182-233411), Bihar
70KUAKulharia (2)XO  15:35+7:4015:36+7:441m--2954.23661mECRChandi Sahar Rd, Bihar
71KWRKoelwar (2)  15:42+8:5415:43+8:541m--2957.84865mECRNational Highway 30, Bihar
72BTABihta (2)  15:54+7:5615:55+8:001m--2966.53662mECRDistt: Patna, Bihar
73SDESadisopur (2)O  16:02+8:5216:03+8:521m--2970.75364mECRSadisopur, Bihar
74NEONeora (2)X  16:11+7:3716:12+7:431m--2977.82061mECRNational Highway 98, Bihar
75DNRDanapur (5)XO  16:30+7:3516:40+7:3610m--2983.81958mECRKhagaul, Bihar
76PNBEPatna Junction (10)X  17:10+7:4117:20+7:4210m--2993.22257mECRPatna 800001, Bihar
77RJPBRajendra Nagar Bihar (4)X  17:27+7:2217:29+7:222m--2995.85155mECRPatna 800001, Bihar
78GZHGulzarbagh (3)  17:34+7:4517:36+7:452m--21000.12655mECRPatna, Bihar
79PNCPatna Saheb (3)  17:43+7:4717:45+7:512m--21003.14659mECRPatna, Bihar
80BKGBanka Ghat (2)O  17:53+7:4817:54+7:491m--21009.36156mECRPatna, Bihar
81FUTFatwa (6)X  18:00+7:4318:01+7:341m--21015.35653mECRPatna, Bihar
82KOOKhusropur (2)  18:10+7:3918:11+7:411m--21023.87152mECRPatna, Bihar
83KWOKarauta (2)XO  18:18-18:19-1m--21032.03654mECRKarauta, Bihar
84SMBHSalim Pur Bihar  18:23-18:24-1m--21034.46852mECRSalim Pur, Bihar
85TKBGTeka Bigha HaltXO  18:28-18:29-1m--21039.01651mECRTeka Bigha, Bihar
86BKPBakhtiyarpur Junction (5)O18:45+7:1819:05+7:5120m--21043.27851mECRPatna, Bihar
87ATLAthmal Gola (2)  19:12+7:5419:13+7:541m--21052.26952mECRPatna, Bihar
88BARHBarh (3)O  19:21+7:5619:22+7:581m--21061.46949mECRBarh, Bihar
89PHKPunarakh  19:31+7:4619:33+7:452m--21071.83251mECRPunarakh, Bihar
90MMKBMemrakhabadXO  19:38+8:0419:39+8:041m--21074.53449mECRMor, Bihar
91KNHPKanhaipurO  19:43+9:0219:44+9:021m--21076.74047mECRMor, Bihar
92MORMor  19:49+7:5419:50+7:481m--21080.14846mECRMor, Bihar
93MKAMokama Junction (3)  19:59+7:4920:01+7:522m--21087.34648mECRPatna, Bihar
94ANAHAunta HaltO  20:06-20:07-1m--21091.15444mECRPanchmahla, Bihar
95HTZHathidah Junction (2)XO  20:12+7:4420:13+7:451m121095.71850mECRMusahari, Bihar
96RDUMRampur Dumra (3)XO  20:26+7:5320:27+7:531m--21099.53346mECRNational Highway 80, Bihar
97BRYABarhiya (3)  20:37+7:5120:38+7:521m--21105.05147mECRBarahiya, Bihar
98DMRXDumri Halt (1)O  20:43+8:5620:44+8:561m121109.33949mECRNational Highway 80, Bihar
99MKBMankatha  20:52+7:5120:53+7:401m--21114.65647mECRNational Highway 80, Bihar
100LKRLuckeesarai Junction (2)  20:59+7:4421:00+7:451m--21120.1852mECRLakhisarai, Bihar
101KIULKiul Junction (5)  21:10+7:2521:12+7:252m--21121.53353mECRDist. Lakhisarai, Bihar
102BSQPBansipurXO  21:20+7:2721:21+7:271m--21125.92253mECRKiul, Bihar
103MNPMananpur (2)O  21:28+7:2821:29+7:281m--21128.42657mECRState Highway 18, Bihar
104BFMBhaluiX  21:35+7:2821:36+7:291m--21131.013356mECRState Highway 18, Bihar
105JMUJamui (3)X  21:44+7:4321:45+7:461m--21148.84681mECRState Highway 72, Bihar
106GHRGidhaur (2)XO  22:04+7:5822:05+7:291m--21163.334106mECRState Highway 18, Bihar
107JAJJhajha (4)  22:25+7:3922:33+7:248m--21174.866143mECRJhajha, Bihar
108STLSimultala (2)X  22:50+7:0222:51+7:021m--21193.566247mERSimultala, Bihar
109JSMEJasidih Junction (5)X  23:14+7:5423:19+7:565m--21218.970271mERJasidih, Jharkhand
110MDPMadhupur Junction (4)X  23:44+7:1723:52+7:138m--21248.085254mER06432-224478, Jharkhand
111CRJChittaranjan (3)  00:32+7:3500:33+7:351m231304.343182mERMihijam, Jharkhand
112ASNAsansol Junction (7)X  01:08+7:5601:18+7:5710m--31329.468113mERDist - bardhaman, West Bengal
113RNGRaniGanj (4)X  01:34+8:0001:35+8:011m--31347.63492mERRaniganj, West Bengal
114UDLAndal Junction (6)  01:48+8:1401:50+8:142m--31354.87386mERAndal, West Bengal
115DGRDurgapur (5)X  02:04+8:1602:08+8:154m--31371.95571mERDurgapur, West Bengal
116BWNBarddhaman Junction (8)  03:17+8:2703:27+8:3110m--31435.45434mERDist - Barddhaman, West Bengal
117BDCBandel Junction (7)  04:42+7:4804:47+7:505m--31502.75114mERdist - HOOGHLY, West Bengal
118CGRChandan Nagar (3)  04:55+7:5204:56+7:531m--31509.44616mERDist -HOOGHLY - 712136, West Bengal
119SRPSerampore (4)  05:13+7:4105:14+7:421m--31522.62311mERdist - hooghly, West Bengal
120HWH•Kolkata Howrah Junction (23)•  06:05+8:20-731542.3-10mERHowrah 711101, West Bengal
Scroll to Top
Scroll to Bottom